Time;durP1;ratioP1;P1;durP2;ratioP2;P2;SDS_P1;SDS_P2;PMS_P1;PMS_P2;Temp;Humidity;BMP_temperature;BMP_pressure;BME280_temperature;BME280_humidity;BME280_pressure;Samples;Min_cycle;Max_cycle;Signal;HPM_P1;HPM_P2
2022/10/14 00:01:41;;;;;;;11.88;5.90;;;;;;;;;;4960590;28;20047;-68
2022/10/14 00:04:06;;;;;;;9.57;5.20;;;;;;;;;;4960466;28;20419;-68
2022/10/14 00:06:33;;;;;;;9.65;5.10;;;;;;;;;;4961554;28;20507;-67
2022/10/14 00:09:01;;;;;;;11.20;5.15;;;;;;;;;;4962143;28;20046;-68
2022/10/14 00:11:29;;;;;;;9.63;4.90;;;;;;;;;;4963980;28;20047;-68
2022/10/14 00:13:57;;;;;;;10.18;4.95;;;;;;;;;;4962362;28;20610;-67
2022/10/14 00:16:27;;;;;;;6.97;4.30;;;;;;;;;;4964373;28;20803;-68
2022/10/14 00:18:53;;;;;;;7.05;4.13;;;;;;;;;;4963752;28;20049;-68
2022/10/14 00:21:18;;;;;;;15.70;4.75;;;;;;;;;;4964733;28;20043;-67
2022/10/14 00:23:45;;;;;;;16.10;5.18;;;;;;;;;;4962904;28;20081;-67
2022/10/14 00:26:23;;;;;;;8.85;4.40;;;;;;;;;;4962804;28;20047;-67
2022/10/14 00:28:49;;;;;;;9.73;4.93;;;;;;;;;;4963891;28;20050;-67
2022/10/14 00:31:15;;;;;;;8.45;4.47;;;;;;;;;;4964035;28;20496;-67
2022/10/14 00:33:43;;;;;;;8.15;4.35;;;;;;;;;;4947501;28;20550;-67
2022/10/14 00:36:11;;;;;;;7.00;4.03;;;;;;;;;;4956022;28;20046;-67
2022/10/14 00:38:37;;;;;;;5.82;3.55;;;;;;;;;;4952333;28;20059;-67
2022/10/14 00:41:03;;;;;;;10.35;4.25;;;;;;;;;;4963832;28;20085;-67
2022/10/14 00:43:54;;;;;;;5.82;4.00;;;;;;;;;;4964113;28;20046;-67
2022/10/14 00:46:20;;;;;;;13.38;3.92;;;;;;;;;;4927531;28;20054;-67
2022/10/14 00:48:46;;;;;;;11.23;4.47;;;;;;;;;;4961975;28;20061;-67
2022/10/14 00:51:11;;;;;;;7.15;4.13;;;;;;;;;;4962682;28;20078;-67
2022/10/14 00:53:41;;;;;;;6.13;3.97;;;;;;;;;;4963150;28;20049;-67
2022/10/14 00:56:09;;;;;;;7.15;3.80;;;;;;;;;;4962460;28;20043;-67
2022/10/14 00:58:35;;;;;;;13.57;4.10;;;;;;;;;;4961174;28;20105;-67
2022/10/14 01:01:01;;;;;;;6.25;4.13;;;;;;;;;;4964042;28;20074;-67
2022/10/14 01:03:26;;;;;;;5.53;3.63;;;;;;;;;;4962574;28;20063;-68
2022/10/14 01:06:12;;;;;;;8.77;4.18;;;;;;;;;;4946145;28;20047;-67
2022/10/14 01:09:12;;;;;;;6.63;3.85;;;;;;;;;;4948457;28;20054;-67
2022/10/14 01:11:53;;;;;;;6.35;3.90;;;;;;;;;;4962471;28;20062;-68
2022/10/14 01:15:03;;;;;;;6.75;4.32;;;;;;;;;;4951143;28;20046;-67
2022/10/14 01:17:41;;;;;;;10.45;4.55;;;;;;;;;;4886991;29;20138;-67
2022/10/14 01:20:25;;;;;;;5.82;4.22;;;;;;;;;;4900559;29;20536;-68
2022/10/14 01:23:33;;;;;;;6.47;4.60;;;;;;;;;;4943697;28;20504;-68
2022/10/14 01:26:33;;;;;;;7.70;4.50;;;;;;;;;;4955137;28;20043;-68
2022/10/14 01:29:12;;;;;;;8.93;5.38;;;;;;;;;;4961445;28;20035;-68
2022/10/14 01:31:44;;;;;;;5.85;4.43;;;;;;;;;;4958739;28;20911;-68
2022/10/14 01:34:16;;;;;;;7.80;4.68;;;;;;;;;;4961375;28;20058;-68
2022/10/14 01:36:49;;;;;;;5.95;4.30;;;;;;;;;;4961124;28;20109;-68
2022/10/14 01:39:22;;;;;;;7.05;4.38;;;;;;;;;;4961557;28;20046;-68
2022/10/14 01:42:11;;;;;;;10.20;4.25;;;;;;;;;;4962189;28;20070;-69
2022/10/14 01:44:42;;;;;;;9.18;4.35;;;;;;;;;;4954585;28;20046;-67
2022/10/14 01:47:10;;;;;;;8.93;4.45;;;;;;;;;;4962875;28;20057;-68
2022/10/14 01:49:58;;;;;;;10.73;4.30;;;;;;;;;;4960505;28;20054;-68
2022/10/14 01:52:27;;;;;;;13.35;4.25;;;;;;;;;;4962857;28;20046;-69
2022/10/14 01:54:58;;;;;;;6.75;4.60;;;;;;;;;;4961999;28;20051;-68
2022/10/14 01:57:29;;;;;;;5.55;4.95;;;;;;;;;;4950253;28;20039;-69
2022/10/14 01:59:56;;;;;;;5.63;4.13;;;;;;;;;;4960638;28;20404;-68
2022/10/14 02:02:23;;;;;;;8.10;4.10;;;;;;;;;;4953387;28;20499;-68
2022/10/14 02:04:49;;;;;;;12.02;4.28;;;;;;;;;;4962177;28;20108;-69
2022/10/14 02:07:26;;;;;;;7.45;3.88;;;;;;;;;;4959755;28;20664;-68
2022/10/14 02:10:10;;;;;;;11.85;3.67;;;;;;;;;;4961186;28;20150;-69
2022/10/14 02:12:39;;;;;;;15.02;4.28;;;;;;;;;;4948097;28;20106;-68
2022/10/14 02:15:39;;;;;;;6.18;3.40;;;;;;;;;;4945251;28;20046;-69
2022/10/14 02:18:43;;;;;;;4.40;3.97;;;;;;;;;;4932882;28;20134;-68
2022/10/14 02:21:18;;;;;;;10.73;3.30;;;;;;;;;;4902174;29;20601;-67
2022/10/14 02:23:49;;;;;;;6.25;3.13;;;;;;;;;;4900686;29;20062;-67
2022/10/14 02:26:15;;;;;;;7.10;3.22;;;;;;;;;;4935621;28;20109;-67
2022/10/14 02:28:42;;;;;;;7.32;3.17;;;;;;;;;;4960283;28;20042;-68
2022/10/14 02:31:14;;;;;;;6.93;3.03;;;;;;;;;;4960826;28;20142;-68
2022/10/14 02:33:51;;;;;;;4.70;2.83;;;;;;;;;;4959953;28;20038;-68
2022/10/14 02:36:20;;;;;;;6.97;2.80;;;;;;;;;;4960783;28;20514;-68
2022/10/14 02:38:47;;;;;;;4.78;2.40;;;;;;;;;;4960736;28;20047;-68
2022/10/14 02:41:17;;;;;;;4.28;2.58;;;;;;;;;;4960468;28;20077;-68
2022/10/14 02:43:45;;;;;;;7.40;3.03;;;;;;;;;;4961397;28;20419;-68
2022/10/14 02:46:11;;;;;;;5.78;4.05;;;;;;;;;;4962212;28;20074;-69
2022/10/14 02:48:38;;;;;;;4.60;3.15;;;;;;;;;;4961538;28;20613;-69
2022/10/14 02:51:04;;;;;;;5.03;3.10;;;;;;;;;;4960725;28;20035;-68
2022/10/14 02:53:29;;;;;;;8.77;3.10;;;;;;;;;;4962034;28;20038;-68
2022/10/14 02:55:56;;;;;;;5.28;2.85;;;;;;;;;;4959741;28;20043;-68
2022/10/14 02:58:22;;;;;;;6.05;3.22;;;;;;;;;;4961617;28;20053;-68
2022/10/14 03:00:48;;;;;;;7.65;3.05;;;;;;;;;;4959470;28;20050;-67
2022/10/14 03:03:15;;;;;;;6.80;2.97;;;;;;;;;;4954078;28;20051;-68
2022/10/14 03:05:42;;;;;;;3.58;2.90;;;;;;;;;;4960660;28;20143;-68
2022/10/14 03:08:11;;;;;;;6.07;2.60;;;;;;;;;;4961878;28;20104;-68
2022/10/14 03:10:38;;;;;;;4.75;3.22;;;;;;;;;;4937934;28;20133;-68
2022/10/14 03:13:06;;;;;;;6.75;2.67;;;;;;;;;;4975244;28;20053;-68
2022/10/14 03:15:37;;;;;;;4.45;2.40;;;;;;;;;;4960180;28;20114;-68
2022/10/14 03:18:04;;;;;;;21.27;4.30;;;;;;;;;;4961042;28;20078;-68
2022/10/14 03:20:41;;;;;;;9.82;2.38;;;;;;;;;;4960526;28;20053;-68
2022/10/14 03:23:07;;;;;;;2.80;1.92;;;;;;;;;;4954830;28;20157;-68
2022/10/14 03:25:35;;;;;;;5.10;1.90;;;;;;;;;;4960332;28;20611;-68
2022/10/14 03:28:05;;;;;;;2.22;2.00;;;;;;;;;;4963097;28;20050;-68
2022/10/14 03:30:39;;;;;;;2.38;2.13;;;;;;;;;;4961585;28;20054;-68
2022/10/14 03:33:12;;;;;;;15.45;2.13;;;;;;;;;;4957592;28;20035;-68
2022/10/14 03:36:03;;;;;;;7.43;2.33;;;;;;;;;;4940704;28;20081;-67
2022/10/14 03:38:51;;;;;;;2.47;1.77;;;;;;;;;;4950723;28;20290;-67
2022/10/14 03:41:30;;;;;;;4.68;2.03;;;;;;;;;;4959735;28;20038;-71
2022/10/14 03:43:57;;;;;;;5.55;2.10;;;;;;;;;;4963489;28;20046;-67
2022/10/14 03:46:23;;;;;;;10.23;2.15;;;;;;;;;;4962399;28;20595;-67
2022/10/14 03:48:49;;;;;;;2.47;1.98;;;;;;;;;;4962762;28;20046;-67
2022/10/14 03:51:15;;;;;;;6.20;2.28;;;;;;;;;;4963022;28;20035;-67
2022/10/14 03:53:42;;;;;;;6.20;2.35;;;;;;;;;;4978292;28;20611;-69
2022/10/14 03:56:08;;;;;;;3.53;2.15;;;;;;;;;;4962295;28;20095;-68
2022/10/14 03:58:34;;;;;;;3.47;2.40;;;;;;;;;;4962056;28;20142;-67
2022/10/14 04:01:05;;;;;;;6.47;2.30;;;;;;;;;;4962597;28;20043;-69
2022/10/14 04:03:51;;;;;;;7.32;2.05;;;;;;;;;;4963109;28;20058;-68
2022/10/14 04:06:17;;;;;;;8.65;2.17;;;;;;;;;;4962746;28;20050;-69
2022/10/14 04:08:43;;;;;;;4.55;1.92;;;;;;;;;;4962090;28;20102;-69
2022/10/14 04:11:19;;;;;;;5.20;2.25;;;;;;;;;;4961795;28;20047;-69
2022/10/14 04:13:46;;;;;;;2.47;2.00;;;;;;;;;;4953919;28;20063;-69
2022/10/14 04:16:12;;;;;;;6.50;2.38;;;;;;;;;;4946405;28;20081;-69
2022/10/14 04:18:58;;;;;;;8.73;3.03;;;;;;;;;;4955054;28;20125;-69
2022/10/14 04:21:24;;;;;;;6.05;2.35;;;;;;;;;;4961429;28;20129;-69
2022/10/14 04:23:51;;;;;;;3.40;2.13;;;;;;;;;;4953480;28;20059;-69
2022/10/14 04:26:20;;;;;;;4.07;2.30;;;;;;;;;;4956871;28;20088;-69
2022/10/14 04:28:45;;;;;;;9.68;2.45;;;;;;;;;;4960431;28;20047;-69
2022/10/14 04:31:15;;;;;;;2.55;2.10;;;;;;;;;;4962301;28;20086;-69
2022/10/14 04:33:51;;;;;;;5.80;2.20;;;;;;;;;;4961159;28;20050;-68
2022/10/14 04:36:23;;;;;;;4.45;2.45;;;;;;;;;;4962017;28;20133;-69
2022/10/14 04:38:48;;;;;;;6.18;2.40;;;;;;;;;;4962805;28;20201;-69
2022/10/14 04:41:14;;;;;;;5.03;2.63;;;;;;;;;;4953023;28;20129;-69
2022/10/14 04:43:45;;;;;;;4.57;2.40;;;;;;;;;;4960494;28;20130;-69
2022/10/14 04:46:24;;;;;;;3.38;2.20;;;;;;;;;;4962884;28;20470;-69
2022/10/14 04:48:50;;;;;;;3.90;2.30;;;;;;;;;;4960957;28;20045;-69
2022/10/14 04:51:16;;;;;;;10.57;2.75;;;;;;;;;;4959730;28;20075;-69
2022/10/14 04:54:00;;;;;;;5.38;2.42;;;;;;;;;;4955930;28;20785;-70
2022/10/14 04:56:33;;;;;;;5.25;2.80;;;;;;;;;;4953533;28;20053;-69
2022/10/14 04:59:01;;;;;;;2.85;2.20;;;;;;;;;;4960109;28;20046;-69
2022/10/14 05:01:47;;;;;;;3.88;2.55;;;;;;;;;;4959181;28;20512;-69
2022/10/14 05:04:13;;;;;;;4.97;2.65;;;;;;;;;;4947489;28;20058;-69
2022/10/14 05:06:40;;;;;;;5.88;3.03;;;;;;;;;;4954562;28;20046;-69
2022/10/14 05:09:09;;;;;;;4.88;3.03;;;;;;;;;;4960968;28;20039;-69
2022/10/14 05:11:35;;;;;;;3.85;3.00;;;;;;;;;;4959877;28;20053;-68
2022/10/14 05:14:00;;;;;;;7.78;3.10;;;;;;;;;;4949552;28;20046;-69
2022/10/14 05:16:28;;;;;;;5.03;3.17;;;;;;;;;;4960270;28;20046;-68
2022/10/14 05:18:54;;;;;;;6.32;3.00;;;;;;;;;;4960461;28;20171;-68
2022/10/14 05:21:22;;;;;;;5.70;3.20;;;;;;;;;;4960840;28;20039;-69
2022/10/14 05:24:01;;;;;;;4.68;3.30;;;;;;;;;;4960252;28;20503;-69
2022/10/14 05:26:30;;;;;;;5.78;4.07;;;;;;;;;;4962352;28;20038;-68
2022/10/14 05:28:58;;;;;;;4.45;3.55;;;;;;;;;;4960189;28;20503;-68
2022/10/14 05:31:24;;;;;;;10.48;3.55;;;;;;;;;;4962438;28;20038;-69
2022/10/14 05:34:00;;;;;;;9.43;3.70;;;;;;;;;;4960603;28;20058;-69
2022/10/14 05:36:25;;;;;;;5.35;3.58;;;;;;;;;;4957581;28;20051;-69
2022/10/14 05:38:54;;;;;;;8.38;3.50;;;;;;;;;;4961032;28;20057;-69
2022/10/14 05:41:20;;;;;;;5.95;3.92;;;;;;;;;;4961960;28;20042;-69
2022/10/14 05:43:46;;;;;;;5.50;4.10;;;;;;;;;;4960275;28;20046;-68
2022/10/14 05:46:12;;;;;;;7.65;4.35;;;;;;;;;;4954810;28;20042;-69
2022/10/14 05:48:41;;;;;;;5.57;3.83;;;;;;;;;;4960635;28;20050;-69
2022/10/14 05:51:06;;;;;;;5.05;3.50;;;;;;;;;;4962213;28;20047;-68
2022/10/14 05:53:35;;;;;;;5.10;3.70;;;;;;;;;;4960653;28;20042;-68
2022/10/14 05:56:08;;;;;;;4.53;3.33;;;;;;;;;;4954313;28;20027;-69
2022/10/14 05:58:36;;;;;;;14.18;3.55;;;;;;;;;;4961282;28;20050;-69
2022/10/14 06:01:05;;;;;;;7.88;3.55;;;;;;;;;;4961341;28;20101;-68
2022/10/14 06:03:31;;;;;;;4.45;3.08;;;;;;;;;;4962045;28;20515;-68
2022/10/14 06:05:56;;;;;;;5.85;3.35;;;;;;;;;;4952052;28;20089;-69
2022/10/14 06:08:23;;;;;;;3.65;3.08;;;;;;;;;;4959654;28;20096;-69
2022/10/14 06:10:49;;;;;;;4.97;3.58;;;;;;;;;;4959087;28;20046;-68
2022/10/14 06:13:15;;;;;;;3.92;3.53;;;;;;;;;;4959862;28;20046;-68
2022/10/14 06:15:44;;;;;;;4.72;3.50;;;;;;;;;;4959960;28;20133;-69
2022/10/14 06:18:10;;;;;;;5.28;3.88;;;;;;;;;;4960830;28;20359;-68
2022/10/14 06:20:36;;;;;;;8.32;3.75;;;;;;;;;;4959524;28;20130;-68
2022/10/14 06:23:02;;;;;;;7.47;4.07;;;;;;;;;;4961553;28;20512;-68
2022/10/14 06:25:29;;;;;;;6.68;4.10;;;;;;;;;;4960700;28;20053;-68
2022/10/14 06:27:54;;;;;;;7.75;4.30;;;;;;;;;;4960537;28;20055;-68
2022/10/14 06:30:20;;;;;;;9.20;4.63;;;;;;;;;;4960589;28;20089;-68
2022/10/14 06:32:46;;;;;;;7.80;4.10;;;;;;;;;;4961354;28;20142;-68
2022/10/14 06:35:12;;;;;;;5.78;3.90;;;;;;;;;;4961597;28;20043;-68
2022/10/14 06:37:38;;;;;;;6.28;3.55;;;;;;;;;;4961046;28;20447;-68
2022/10/14 06:40:04;;;;;;;7.80;3.58;;;;;;;;;;4960722;28;20047;-69
2022/10/14 06:42:29;;;;;;;6.20;3.72;;;;;;;;;;4960218;28;20057;-68
2022/10/14 06:44:57;;;;;;;4.32;3.03;;;;;;;;;;4961353;28;20563;-68
2022/10/14 06:47:22;;;;;;;7.88;2.55;;;;;;;;;;4961216;28;20055;-68
2022/10/14 06:49:48;;;;;;;4.95;2.13;;;;;;;;;;4959991;28;20046;-68
2022/10/14 06:52:13;;;;;;;2.72;2.47;;;;;;;;;;4960310;28;20074;-68
2022/10/14 06:54:39;;;;;;;6.10;2.53;;;;;;;;;;4960787;28;20188;-68
2022/10/14 06:57:05;;;;;;;2.83;2.30;;;;;;;;;;4961179;28;20129;-69
2022/10/14 06:59:30;;;;;;;3.50;2.40;;;;;;;;;;4960861;28;20070;-68
2022/10/14 07:01:56;;;;;;;6.25;2.58;;;;;;;;;;4960126;28;20105;-69
2022/10/14 07:04:21;;;;;;;3.22;2.42;;;;;;;;;;4959846;28;20079;-68
2022/10/14 07:06:47;;;;;;;2.83;2.40;;;;;;;;;;4960971;28;20117;-68
2022/10/14 07:09:12;;;;;;;3.85;2.28;;;;;;;;;;4960741;28;20722;-69
2022/10/14 07:11:38;;;;;;;4.35;2.70;;;;;;;;;;4959932;28;20050;-68
2022/10/14 07:14:03;;;;;;;5.82;2.33;;;;;;;;;;4960220;28;20046;-68
2022/10/14 07:16:29;;;;;;;3.22;2.30;;;;;;;;;;4963275;28;20043;-68
2022/10/14 07:18:54;;;;;;;3.80;2.33;;;;;;;;;;4964615;28;20082;-68
2022/10/14 07:21:20;;;;;;;4.15;2.28;;;;;;;;;;4964961;28;20043;-68
2022/10/14 07:23:45;;;;;;;3.58;2.28;;;;;;;;;;4963893;28;20054;-68
2022/10/14 07:26:11;;;;;;;2.30;2.03;;;;;;;;;;4962720;28;20076;-68
2022/10/14 07:28:37;;;;;;;5.97;2.38;;;;;;;;;;4964685;28;20058;-68
2022/10/14 07:31:04;;;;;;;4.10;2.03;;;;;;;;;;4964882;28;20047;-68
2022/10/14 07:33:30;;;;;;;2.17;1.77;;;;;;;;;;4964963;28;20043;-68
2022/10/14 07:36:01;;;;;;;3.55;1.90;;;;;;;;;;4962965;28;20054;-68
2022/10/14 07:38:26;;;;;;;2.45;1.58;;;;;;;;;;4964600;28;20054;-68
2022/10/14 07:41:08;;;;;;;1.70;1.60;;;;;;;;;;4964492;28;20081;-69
2022/10/14 07:43:34;;;;;;;4.25;2.17;;;;;;;;;;4964100;28;20062;-72
2022/10/14 07:46:04;;;;;;;2.25;1.63;;;;;;;;;;4964382;28;20159;-68
2022/10/14 07:48:31;;;;;;;9.63;2.40;;;;;;;;;;4963052;28;20061;-69
2022/10/14 07:50:57;;;;;;;4.13;1.73;;;;;;;;;;4962923;28;20042;-68
2022/10/14 07:53:23;;;;;;;2.13;1.70;;;;;;;;;;4963359;28;20049;-68
2022/10/14 07:55:52;;;;;;;2.60;1.63;;;;;;;;;;4963633;28;20056;-68
2022/10/14 07:58:22;;;;;;;2.08;1.38;;;;;;;;;;4963428;28;20706;-69
2022/10/14 08:00:51;;;;;;;1.98;1.77;;;;;;;;;;4963356;28;20451;-68
2022/10/14 08:03:18;;;;;;;2.42;1.70;;;;;;;;;;4964808;28;20042;-68
2022/10/14 08:05:44;;;;;;;2.00;1.63;;;;;;;;;;4963704;28;20057;-68
2022/10/14 08:08:10;;;;;;;1.63;1.40;;;;;;;;;;4963478;28;20046;-68
2022/10/14 08:10:36;;;;;;;2.10;1.30;;;;;;;;;;4962990;28;20061;-68
2022/10/14 08:13:02;;;;;;;4.85;1.30;;;;;;;;;;4963902;28;20163;-68
2022/10/14 08:15:33;;;;;;;2.03;1.08;;;;;;;;;;4964118;28;20062;-68
2022/10/14 08:17:58;;;;;;;4.70;1.30;;;;;;;;;;4963639;28;20042;-68
2022/10/14 08:20:23;;;;;;;2.85;1.20;;;;;;;;;;4962338;28;20043;-68
2022/10/14 08:22:49;;;;;;;1.48;1.20;;;;;;;;;;4963886;28;20050;-68
2022/10/14 08:25:14;;;;;;;3.20;1.27;;;;;;;;;;4963961;28;20654;-68
2022/10/14 08:27:40;;;;;;;2.42;1.40;;;;;;;;;;4962932;28;20051;-68
2022/10/14 08:30:06;;;;;;;2.55;1.20;;;;;;;;;;4963120;28;20484;-67
2022/10/14 08:32:31;;;;;;;2.80;1.10;;;;;;;;;;4962313;28;20105;-67
2022/10/14 08:34:57;;;;;;;0.90;0.90;;;;;;;;;;4963629;28;20803;-68
2022/10/14 08:37:22;;;;;;;1.48;1.10;;;;;;;;;;4963220;28;20046;-68
2022/10/14 08:39:48;;;;;;;2.05;1.25;;;;;;;;;;4962423;28;20050;-68
2022/10/14 08:42:32;;;;;;;1.75;0.93;;;;;;;;;;4962059;28;20042;-67
2022/10/14 08:45:07;;;;;;;3.28;0.90;;;;;;;;;;4963260;28;20054;-68
2022/10/14 08:47:41;;;;;;;3.25;1.00;;;;;;;;;;4962736;28;20109;-69
2022/10/14 08:50:19;;;;;;;2.38;1.15;;;;;;;;;;4961730;28;20137;-68
2022/10/14 08:52:50;;;;;;;2.35;0.90;;;;;;;;;;4962766;28;20055;-69
2022/10/14 08:55:31;;;;;;;1.30;0.98;;;;;;;;;;4963106;28;20054;-69
2022/10/14 08:58:02;;;;;;;1.98;1.02;;;;;;;;;;4962804;28;20047;-69
2022/10/14 09:00:30;;;;;;;1.77;0.90;;;;;;;;;;4962969;28;20093;-68
2022/10/14 09:02:57;;;;;;;1.85;0.90;;;;;;;;;;4962431;28;20104;-68
2022/10/14 09:05:24;;;;;;;2.70;0.90;;;;;;;;;;4961598;28;20043;-68
2022/10/14 09:07:54;;;;;;;0.80;0.80;;;;;;;;;;4962375;28;20035;-69
2022/10/14 09:10:40;;;;;;;1.17;1.05;;;;;;;;;;4962957;28;20046;-68
2022/10/14 09:13:17;;;;;;;0.80;0.80;;;;;;;;;;4963669;28;20053;-68
2022/10/14 09:15:56;;;;;;;5.75;1.05;;;;;;;;;;4961425;28;20459;-68
2022/10/14 09:18:28;;;;;;;0.80;0.80;;;;;;;;;;4963123;28;20042;-68
2022/10/14 09:20:56;;;;;;;1.83;1.00;;;;;;;;;;4962435;28;20054;-68
2022/10/14 09:23:23;;;;;;;1.35;1.10;;;;;;;;;;4963188;28;20045;-68
2022/10/14 09:25:56;;;;;;;3.00;1.10;;;;;;;;;;4961470;28;20078;-69
2022/10/14 09:28:38;;;;;;;2.88;1.00;;;;;;;;;;4962816;28;20043;-69
2022/10/14 09:31:05;;;;;;;2.03;0.90;;;;;;;;;;4962792;28;20054;-68
2022/10/14 09:33:33;;;;;;;2.00;0.80;;;;;;;;;;4963086;28;20039;-67
2022/10/14 09:35:59;;;;;;;0.88;0.88;;;;;;;;;;4962509;28;20492;-68
2022/10/14 09:38:25;;;;;;;0.88;0.73;;;;;;;;;;4960980;28;20077;-68
2022/10/14 09:40:56;;;;;;;1.60;0.90;;;;;;;;;;4961062;28;20407;-68
2022/10/14 09:43:23;;;;;;;0.93;0.93;;;;;;;;;;4962675;28;20086;-68
2022/10/14 09:46:09;;;;;;;4.07;1.00;;;;;;;;;;4962570;28;20058;-68
2022/10/14 09:48:39;;;;;;;1.63;0.93;;;;;;;;;;4962202;28;20041;-68
2022/10/14 09:51:07;;;;;;;0.98;0.80;;;;;;;;;;4961761;28;20130;-68
2022/10/14 09:53:39;;;;;;;0.73;0.73;;;;;;;;;;4961447;28;20078;-69
2022/10/14 09:56:07;;;;;;;1.33;0.70;;;;;;;;;;4944433;28;20714;-68
2022/10/14 09:58:35;;;;;;;2.58;0.85;;;;;;;;;;4961370;28;20141;-69
2022/10/14 10:01:01;;;;;;;2.20;0.90;;;;;;;;;;4961573;28;20034;-68
2022/10/14 10:03:33;;;;;;;1.75;1.00;;;;;;;;;;4962452;28;20066;-68
2022/10/14 10:06:09;;;;;;;1.65;0.70;;;;;;;;;;4961180;28;20057;-69
2022/10/14 10:08:37;;;;;;;0.80;0.65;;;;;;;;;;4962405;28;20035;-68
2022/10/14 10:11:12;;;;;;;1.42;0.80;;;;;;;;;;4960720;28;20090;-69
2022/10/14 10:13:45;;;;;;;3.60;0.90;;;;;;;;;;4961575;28;20054;-70
2022/10/14 10:16:21;;;;;;;1.40;0.93;;;;;;;;;;4962534;28;20050;-68
2022/10/14 10:18:47;;;;;;;4.22;1.00;;;;;;;;;;4961565;28;20062;-69
2022/10/14 10:21:23;;;;;;;1.63;0.70;;;;;;;;;;4961563;28;20046;-68
2022/10/14 10:24:02;;;;;;;1.30;0.65;;;;;;;;;;4961300;28;20051;-69
2022/10/14 10:26:33;;;;;;;1.42;0.60;;;;;;;;;;4961545;28;20038;-68
2022/10/14 10:29:02;;;;;;;0.52;0.50;;;;;;;;;;4961194;28;20047;-69
2022/10/14 10:31:45;;;;;;;1.33;0.60;;;;;;;;;;4960504;28;20695;-68
2022/10/14 10:34:29;;;;;;;0.90;0.60;;;;;;;;;;4946660;28;20134;-69
2022/10/14 10:37:29;;;;;;;2.80;0.73;;;;;;;;;;4962048;28;20078;-68
2022/10/14 10:40:20;;;;;;;5.75;0.80;;;;;;;;;;4948922;28;20074;-69
2022/10/14 10:43:07;;;;;;;0.75;0.75;;;;;;;;;;4960819;28;20081;-69
2022/10/14 10:46:01;;;;;;;0.93;0.68;;;;;;;;;;4961468;28;20059;-68
2022/10/14 10:48:46;;;;;;;0.80;0.60;;;;;;;;;;4952525;28;20046;-69
2022/10/14 10:51:21;;;;;;;0.88;0.70;;;;;;;;;;4961706;28;20046;-68
2022/10/14 10:54:21;;;;;;;0.88;0.60;;;;;;;;;;4959536;28;20428;-70
2022/10/14 10:56:51;;;;;;;0.80;0.50;;;;;;;;;;4938462;28;20054;-68
2022/10/14 10:59:35;;;;;;;1.38;0.70;;;;;;;;;;4949334;28;20047;-69
2022/10/14 11:02:32;;;;;;;0.70;0.60;;;;;;;;;;4959905;28;20042;-69
2022/10/14 11:05:16;;;;;;;1.75;0.57;;;;;;;;;;4958961;28;20783;-69
2022/10/14 11:13:50;;;;;;;0.98;0.70;;;;;;;;;;4960312;28;20035;-69
2022/10/14 11:16:28;;;;;;;1.40;0.93;;;;;;;;;;4959721;28;20035;-68
2022/10/14 11:19:03;;;;;;;3.13;0.98;;;;;;;;;;4943552;28;20038;-68
2022/10/14 11:21:38;;;;;;;1.33;0.93;;;;;;;;;;4943295;28;20098;-69
2022/10/14 11:24:12;;;;;;;1.45;0.70;;;;;;;;;;4960856;28;20061;-69
2022/10/14 11:26:37;;;;;;;0.80;0.70;;;;;;;;;;4957690;28;20053;-69
2022/10/14 11:29:19;;;;;;;0.73;0.70;;;;;;;;;;4959775;28;20572;-69
2022/10/14 11:31:49;;;;;;;8.73;0.90;;;;;;;;;;4958646;28;20038;-69
2022/10/14 11:34:43;;;;;;;12.82;1.20;;;;;;;;;;4959098;28;20058;-69
2022/10/14 11:37:18;;;;;;;0.50;0.50;;;;;;;;;;4958881;28;20066;-69
2022/10/14 11:40:00;;;;;;;1.08;0.70;;;;;;;;;;4958576;28;20103;-68
2022/10/14 11:42:47;;;;;;;0.90;0.63;;;;;;;;;;4959235;28;20042;-68
2022/10/14 11:45:15;;;;;;;0.52;0.52;;;;;;;;;;4946977;28;20089;-69
2022/10/14 11:47:46;;;;;;;1.00;0.80;;;;;;;;;;4953628;28;20507;-69
2022/10/14 11:50:26;;;;;;;1.50;0.80;;;;;;;;;;4957815;28;20674;-68
2022/10/14 11:53:00;;;;;;;1.45;0.60;;;;;;;;;;4955234;28;20054;-69
2022/10/14 11:55:33;;;;;;;9.18;0.80;;;;;;;;;;4957133;28;20117;-69
2022/10/14 11:58:12;;;;;;;1.02;0.60;;;;;;;;;;4958641;28;20138;-69
2022/10/14 12:00:43;;;;;;;0.70;0.60;;;;;;;;;;4921444;28;1092880;-68
2022/10/14 12:03:18;;;;;;;0.73;0.73;;;;;;;;;;4962211;28;20047;-69
2022/10/14 12:06:11;;;;;;;0.65;0.63;;;;;;;;;;4961621;28;20129;-69
2022/10/14 12:08:46;;;;;;;0.93;0.60;;;;;;;;;;4961674;28;20158;-69
2022/10/14 12:11:32;;;;;;;2.50;0.70;;;;;;;;;;4967785;28;20039;-69
2022/10/14 12:14:13;;;;;;;1.00;0.50;;;;;;;;;;4962117;28;20055;-69
2022/10/14 12:16:42;;;;;;;4.40;0.77;;;;;;;;;;4963180;28;20139;-69
2022/10/14 12:19:12;;;;;;;4.40;0.70;;;;;;;;;;4960883;28;20535;-69
2022/10/14 12:21:53;;;;;;;1.63;0.65;;;;;;;;;;4962734;28;20062;-68
2022/10/14 12:24:24;;;;;;;1.83;0.77;;;;;;;;;;4963554;28;20053;-68
2022/10/14 12:26:59;;;;;;;7.03;1.48;;;;;;;;;;4964074;28;20059;-68
2022/10/14 12:29:49;;;;;;;1.52;0.82;;;;;;;;;;4963488;28;20058;-68
2022/10/14 12:32:15;;;;;;;2.88;0.82;;;;;;;;;;4930229;28;20047;-68
2022/10/14 12:34:44;;;;;;;0.52;0.52;;;;;;;;;;4964005;28;20046;-68
2022/10/14 12:37:28;;;;;;;1.10;0.70;;;;;;;;;;4963970;28;20062;-67
2022/10/14 12:40:13;;;;;;;2.03;0.60;;;;;;;;;;4960743;28;20050;-68
2022/10/14 12:42:42;;;;;;;4.55;0.90;;;;;;;;;;4963638;28;20071;-67
2022/10/14 12:45:27;;;;;;;13.15;0.90;;;;;;;;;;4962985;28;20085;-68
2022/10/14 12:48:04;;;;;;;1.42;0.68;;;;;;;;;;4962938;28;20533;-68
2022/10/14 12:50:35;;;;;;;1.77;0.60;;;;;;;;;;4963333;28;20054;-68
2022/10/14 12:53:05;;;;;;;6.68;0.65;;;;;;;;;;4962618;28;20415;-68
2022/10/14 12:55:46;;;;;;;0.85;0.77;;;;;;;;;;4940793;28;20042;-68
2022/10/14 12:58:20;;;;;;;0.63;0.63;;;;;;;;;;4946128;28;20039;-67
2022/10/14 13:00:53;;;;;;;2.33;0.65;;;;;;;;;;4963396;28;20054;-68
2022/10/14 13:03:23;;;;;;;1.50;0.80;;;;;;;;;;4960757;28;20566;-68
2022/10/14 13:05:51;;;;;;;0.65;0.60;;;;;;;;;;4961890;28;20054;-68
2022/10/14 13:08:19;;;;;;;1.98;0.60;;;;;;;;;;4963734;28;20160;-68
2022/10/14 13:10:53;;;;;;;5.93;0.80;;;;;;;;;;4962894;28;20061;-68
2022/10/14 13:13:52;;;;;;;0.70;0.68;;;;;;;;;;4948633;28;20042;-68
2022/10/14 13:16:24;;;;;;;1.02;0.70;;;;;;;;;;4945150;28;20113;-68
2022/10/14 13:18:57;;;;;;;1.95;1.33;;;;;;;;;;4962178;28;20453;-69
2022/10/14 13:21:37;;;;;;;1.17;0.68;;;;;;;;;;4962050;28;20067;-68
2022/10/14 13:24:06;;;;;;;0.57;0.57;;;;;;;;;;4961034;28;20046;-69
2022/10/14 13:26:54;;;;;;;2.60;0.70;;;;;;;;;;4963387;28;20081;-69
2022/10/14 13:29:20;;;;;;;1.85;0.60;;;;;;;;;;4951970;28;20047;-67
2022/10/14 13:32:13;;;;;;;1.60;0.73;;;;;;;;;;4959690;28;20109;-68
2022/10/14 13:34:54;;;;;;;1.55;0.60;;;;;;;;;;4962104;28;20038;-68
2022/10/14 13:37:36;;;;;;;1.05;0.60;;;;;;;;;;4962739;28;20085;-67
2022/10/14 13:40:23;;;;;;;4.68;0.80;;;;;;;;;;4960413;28;20050;-68
2022/10/14 13:42:54;;;;;;;1.55;0.60;;;;;;;;;;4961842;28;20122;-68
2022/10/14 13:45:27;;;;;;;0.73;0.70;;;;;;;;;;4948448;28;20050;-68
2022/10/14 13:47:53;;;;;;;0.70;0.70;;;;;;;;;;4961625;28;20050;-67
2022/10/14 13:50:22;;;;;;;2.22;0.60;;;;;;;;;;4953531;28;20046;-67
2022/10/14 13:53:02;;;;;;;7.95;0.85;;;;;;;;;;4962720;28;20504;-67
2022/10/14 13:55:29;;;;;;;1.27;0.60;;;;;;;;;;4961880;28;20141;-69
2022/10/14 13:58:09;;;;;;;0.63;0.57;;;;;;;;;;4961621;28;20046;-67
2022/10/14 14:00:38;;;;;;;0.65;0.65;;;;;;;;;;4960130;28;20081;-68
2022/10/14 14:03:22;;;;;;;5.55;1.00;;;;;;;;;;4962232;28;20408;-67
2022/10/14 14:05:49;;;;;;;8.07;0.82;;;;;;;;;;4957621;28;20050;-67
2022/10/14 14:08:23;;;;;;;0.80;0.70;;;;;;;;;;4961422;28;20051;-67
2022/10/14 14:10:55;;;;;;;6.05;0.60;;;;;;;;;;4960707;28;20551;-67
2022/10/14 14:13:21;;;;;;;3.35;0.68;;;;;;;;;;4959593;28;20054;-67
2022/10/14 14:15:52;;;;;;;3.33;0.65;;;;;;;;;;4961531;28;20484;-68
2022/10/14 14:18:47;;;;;;;16.95;1.15;;;;;;;;;;4962051;28;20057;-68
2022/10/14 14:21:13;;;;;;;7.85;0.82;;;;;;;;;;4945756;28;20601;-67
2022/10/14 14:24:14;;;;;;;6.57;0.60;;;;;;;;;;4959148;28;20086;-67
2022/10/14 14:26:39;;;;;;;2.70;0.60;;;;;;;;;;4951322;28;20051;-67
2022/10/14 14:29:13;;;;;;;3.25;0.90;;;;;;;;;;4962029;28;20448;-67
2022/10/14 14:31:39;;;;;;;4.35;0.77;;;;;;;;;;4960960;28;20046;-67
2022/10/14 14:34:04;;;;;;;18.10;1.20;;;;;;;;;;4961238;28;20038;-67
2022/10/14 14:36:30;;;;;;;5.28;0.80;;;;;;;;;;4961605;28;20161;-67
2022/10/14 14:39:00;;;;;;;3.22;0.70;;;;;;;;;;4961606;28;20089;-68
2022/10/14 14:41:30;;;;;;;2.67;0.90;;;;;;;;;;4961746;28;20046;-68
2022/10/14 14:44:00;;;;;;;7.07;0.70;;;;;;;;;;4961344;28;20055;-68
2022/10/14 14:46:35;;;;;;;15.90;1.40;;;;;;;;;;4961188;28;20133;-67
2022/10/14 14:49:02;;;;;;;7.88;0.95;;;;;;;;;;4961351;28;20282;-67
2022/10/14 14:51:33;;;;;;;4.78;0.90;;;;;;;;;;4962009;28;20043;-70
2022/10/14 14:53:59;;;;;;;2.40;0.90;;;;;;;;;;4958797;28;20050;-70
2022/10/14 14:56:31;;;;;;;3.58;0.70;;;;;;;;;;4961325;28;20131;-70
2022/10/14 14:59:06;;;;;;;2.90;0.80;;;;;;;;;;4960913;28;20050;-69
2022/10/14 15:01:32;;;;;;;3.80;0.70;;;;;;;;;;4961423;28;20049;-70
2022/10/14 15:04:02;;;;;;;2.25;0.85;;;;;;;;;;4960145;28;20050;-70
2022/10/14 15:06:28;;;;;;;2.20;0.77;;;;;;;;;;4959869;28;20206;-70
2022/10/14 15:08:57;;;;;;;0.80;0.80;;;;;;;;;;4960210;28;20063;-71
2022/10/14 15:11:23;;;;;;;3.55;0.80;;;;;;;;;;4961021;28;20074;-71
2022/10/14 15:13:54;;;;;;;2.72;0.70;;;;;;;;;;4961120;28;20151;-71
2022/10/14 15:16:52;;;;;;;7.50;1.00;;;;;;;;;;4960559;28;20058;-71
2022/10/14 15:19:18;;;;;;;1.80;1.50;;;;;;;;;;4960044;28;20400;-71